12:13
Airports
Links
Donate
Help keep this website running!
PayPal
Bitcoin
METAR
LIBR 121145Z 18026G37KT 9999 SCT015 17/14 Q1018 NOSIG RMK SCT VIS MIN 9999 WIND THR31 21019G29KT BLU
Current Weather Conditions at LIBR
VFR 11:45:00 12-12-17
Altimeter:30.06 hg
Temp:17.0°c 63°f
Dew point:14.0°c 57°f
Wind:26 knots, 29.9 mph, 13 m/s, from 180°
Visibility:6.21 statute miles
1500(SCT) Scattered
No significant weather changes expected within 2 hours.
Past METAR reports
MVFR 11:15:00 12-12-17
Altimeter:30.09 hg
Temp:17.0°c 63°f
Dew point:14.0°c 57°f
Wind:25 knots, 28.8 mph, 13 m/s, from 180°
Visibility:6.21 statute miles
1500(BKN) Broken
No significant weather changes expected within 2 hours.
LIBR 121115Z 18025G37KT 9999 BKN015 17/14 Q1019 NOSIG
MVFR 10:45:00 12-12-17
Altimeter:30.09 hg
Temp:17.0°c 63°f
Dew point:14.0°c 57°f
Wind:26 knots, 29.9 mph, 13 m/s, from 190°
Visibility:6.21 statute miles
1500(BKN) Broken
No significant weather changes expected within 2 hours.
LIBR 121045Z 19026G39KT 9999 BKN015 17/14 Q1019 NOSIG RMK BKN VIS MIN 9999 WIND THR31 21017G29KT WHT
MVFR 10:15:00 12-12-17
Altimeter:30.09 hg
Temp:17.0°c 63°f
Dew point:14.0°c 57°f
Wind:25 knots, 28.8 mph, 13 m/s, from 190°
Visibility:6.21 statute miles
1500(BKN) Broken
No significant weather changes expected within 2 hours.
LIBR 121015Z 19025G37KT 9999 BKN015 17/14 Q1019 NOSIG
VFR 09:45:00 12-12-17
Altimeter:30.09 hg
Temp:17.0°c 63°f
Dew point:14.0°c 57°f
Wind:22 knots, 25.3 mph, 11 m/s, from 180°
Visibility:6.21 statute miles
1500(SCT) Scattered
No significant weather changes expected within 2 hours.
LIBR 120945Z 18022G35KT 9999 SCT015 17/14 Q1019 NOSIG RMK SCT VIS MIN 9999 WIND THR31 20019G29KT BLU
VFR 09:15:00 12-12-17
Altimeter:30.09 hg
Temp:17.0°c 63°f
Dew point:14.0°c 57°f
Wind:23 knots, 26.5 mph, 12 m/s, from 180°
Visibility:6.21 statute miles
1500(SCT) Scattered
No significant weather changes expected within 2 hours.
LIBR 120915Z 18023G33KT 9999 SCT015 17/14 Q1019 NOSIG
VFR 08:45:00 12-12-17
Altimeter:30.09 hg
Temp:16.0°c 61°f
Dew point:15.0°c 59°f
Wind:19 knots, 21.9 mph, 10 m/s, from 170°
Visibility:6.21 statute miles
1500(SCT) Scattered
No significant weather changes expected within 2 hours.
LIBR 120845Z 17019G32KT 9999 SCT015 16/15 Q1019 NOSIG RMK SCT VIS MIN 9999 WIND THR31 19018G28KT BLU
TAF
TAF LIBR 121100Z 1212/1312 18015G25KT 9999 BKN015 TEMPO 1212/1300 19025G35KT BECMG 1309/1310 20015KT
Forecast at LIBR
TEMPO 12:00 12-12-17 to 00:00 13-12-17
Wind:25 Knots from 190°
12:00 12-12-17 to 09:00 13-12-17
Wind:15 Knots from 180°
Visibility:6.21 statute miles
1500BKN Broken
BECMG 09:00 13-12-17 to 12:00 13-12-17
Wind:15 Knots from 200°
Visibility:6.21 statute miles
1500BKN Broken